Time;durP1;ratioP1;P1;durP2;ratioP2;P2;SDS_P1;SDS_P2;PMS_P1;PMS_P2;Temp;Humidity;BMP_temperature;BMP_pressure;BME280_temperature;BME280_humidity;BME280_pressure;Samples;Min_cycle;Max_cycle;Signal;HPM_P1;HPM_P2
2020/12/24 00:00:25;;;;;;;53.65;29.50;;;;;;;6.40;82.67;96596.98;1841018;77;25783;-89
2020/12/24 00:02:54;;;;;;;59.50;31.15;;;;;;;6.40;82.68;96592.95;1832857;77;25781;-85
2020/12/24 00:05:21;;;;;;;56.23;30.37;;;;;;;6.39;82.62;96592.64;1856534;77;25734;-87
2020/12/24 00:07:49;;;;;;;53.90;27.82;;;;;;;6.39;82.71;96595.33;1854954;77;28449;-87
2020/12/24 00:10:16;;;;;;;53.13;26.93;;;;;;;6.43;82.78;96591.19;1819986;77;25700;-89
2020/12/24 00:12:44;;;;;;;50.25;27.52;;;;;;;6.42;82.85;96586.34;1850009;77;25693;-86
2020/12/24 00:15:11;;;;;;;32.23;18.98;;;;;;;6.45;82.99;96589.13;1856516;77;25760;-87
2020/12/24 00:17:40;;;;;;;30.57;16.37;;;;;;;6.49;83.15;96593.06;1835712;77;25911;-86
2020/12/24 00:20:07;;;;;;;25.82;16.32;;;;;;;6.56;83.27;96585.83;1829275;77;28454;-86
2020/12/24 00:22:35;;;;;;;27.20;16.70;;;;;;;6.66;83.35;96584.90;1839034;77;25705;-88
2020/12/24 00:25:04;;;;;;;24.40;14.43;;;;;;;6.68;83.29;96582.02;1846910;77;25789;-87
2020/12/24 00:27:31;;;;;;;17.25;11.12;;;;;;;6.75;83.41;96581.52;1824115;77;25784;-85
2020/12/24 00:29:58;;;;;;;13.43;9.68;;;;;;;6.80;83.41;96582.52;1846127;77;25704;-86
2020/12/24 00:32:26;;;;;;;14.63;10.08;;;;;;;6.90;83.56;96580.75;1817418;77;27534;-87
2020/12/24 00:34:53;;;;;;;12.65;8.40;;;;;;;6.98;83.65;96579.73;1840317;77;25773;-87
2020/12/24 00:37:20;;;;;;;10.95;7.35;;;;;;;7.07;83.71;96575.78;1856512;77;25808;-85
2020/12/24 00:39:48;;;;;;;11.93;8.05;;;;;;;7.18;83.75;96568.43;1835073;77;25722;-86
2020/12/24 00:42:15;;;;;;;12.93;8.10;;;;;;;7.28;83.71;96564.78;1829789;77;25757;-88
2020/12/24 00:44:42;;;;;;;9.55;7.30;;;;;;;7.35;83.75;96570.98;1856458;77;28898;-86
2020/12/24 00:47:10;;;;;;;9.55;7.15;;;;;;;7.40;83.64;96566.30;1856448;77;25726;-86
2020/12/24 00:49:37;;;;;;;10.53;7.45;;;;;;;7.43;83.60;96566.70;1858022;77;25306;-89
2020/12/24 00:52:05;;;;;;;11.25;7.55;;;;;;;7.51;83.62;96567.80;1855392;77;25926;-88
2020/12/24 00:54:32;;;;;;;11.50;6.80;;;;;;;7.57;83.64;96558.91;1851022;77;25797;-86
2020/12/24 00:56:59;;;;;;;10.32;7.65;;;;;;;7.63;83.54;96559.91;1856518;77;27477;-86
2020/12/24 00:59:27;;;;;;;8.85;6.97;;;;;;;7.67;83.55;96559.80;1856184;77;25770;-86
2020/12/24 01:01:54;;;;;;;11.63;8.20;;;;;;;7.72;83.56;96558.65;1856511;77;26337;-86
2020/12/24 01:04:21;;;;;;;10.48;7.42;;;;;;;7.75;83.46;96547.45;1832426;77;25561;-85
2020/12/24 01:06:48;;;;;;;9.98;8.15;;;;;;;7.79;83.41;96552.71;1836023;77;25717;-84
2020/12/24 01:09:16;;;;;;;14.95;8.98;;;;;;;7.83;83.40;96552.59;1824829;77;28497;-88
2020/12/24 01:11:43;;;;;;;12.23;8.45;;;;;;;7.87;83.37;96548.42;1822819;77;26236;-85
2020/12/24 01:14:11;;;;;;;12.85;8.08;;;;;;;7.88;83.31;96542.53;1825118;77;26361;-88
2020/12/24 01:16:38;;;;;;;13.22;7.60;;;;;;;7.92;83.31;96540.55;1840756;77;25731;-86
2020/12/24 01:19:05;;;;;;;10.43;8.48;;;;;;;7.94;83.26;96534.45;1825166;77;25781;-84
2020/12/24 01:21:33;;;;;;;11.08;7.50;;;;;;;7.96;83.25;96536.92;1843457;77;27513;-85
2020/12/24 01:24:00;;;;;;;12.80;8.30;;;;;;;7.99;83.18;96534.30;1822805;77;25886;-85
2020/12/24 01:26:27;;;;;;;13.15;8.10;;;;;;;8.04;83.20;96520.53;1822757;77;25721;-85
2020/12/24 01:28:55;;;;;;;14.58;9.43;;;;;;;8.10;83.19;96523.67;1832445;77;25952;-87
2020/12/24 01:31:22;;;;;;;12.65;8.55;;;;;;;8.15;83.19;96527.07;1833668;77;25868;-86
2020/12/24 01:33:49;;;;;;;11.95;8.23;;;;;;;8.15;83.11;96523.04;1856646;77;27561;-85
2020/12/24 01:36:22;;;;;;;11.50;7.47;;;;;;;8.20;83.08;96521.36;1834677;77;26199;-84
2020/12/24 01:38:50;;;;;;;12.43;7.72;;;;;;;8.24;83.04;96526.58;1833106;77;25692;-85
2020/12/24 01:41:17;;;;;;;11.78;7.70;;;;;;;8.27;83.04;96527.50;1836227;77;26595;-86
2020/12/24 01:43:44;;;;;;;9.45;7.12;;;;;;;8.29;82.97;96528.11;1823073;77;25631;-85
2020/12/24 01:46:12;;;;;;;9.20;6.90;;;;;;;8.33;82.98;96527.71;1823064;77;27475;-85
2020/12/24 01:48:39;;;;;;;11.38;7.12;;;;;;;8.26;82.95;96503.52;1825410;77;26038;-88
2020/12/24 01:54:16;;;;;;;9.00;7.10;;;;;;;8.45;82.91;96512.52;1823153;77;26485;-84
2020/12/24 01:56:44;;;;;;;9.38;7.62;;;;;;;8.47;82.86;96502.34;1845800;77;25936;-84
2020/12/24 01:59:15;;;;;;;10.28;7.37;;;;;;;8.46;82.80;96503.37;1856421;77;27412;-85
2020/12/24 02:01:51;;;;;;;10.15;7.50;;;;;;;8.45;82.79;96502.55;1823010;77;26348;-84
2020/12/24 02:04:19;;;;;;;10.03;7.28;;;;;;;8.49;82.80;96498.91;1832929;77;25733;-86
2020/12/24 02:06:50;;;;;;;8.00;6.53;;;;;;;8.53;82.76;96492.06;1835176;77;25826;-84
2020/12/24 02:09:18;;;;;;;10.45;6.60;;;;;;;8.53;82.70;96485.34;1856701;77;26451;-86
2020/12/24 02:11:45;;;;;;;8.60;6.72;;;;;;;8.55;82.69;96484.59;1834029;77;27483;-85
2020/12/24 02:14:12;;;;;;;9.65;7.42;;;;;;;8.58;82.70;96480.09;1856584;77;25713;-88
2020/12/24 02:16:40;;;;;;;9.48;7.10;;;;;;;8.61;82.65;96485.87;1829458;77;25714;-84
2020/12/24 02:19:08;;;;;;;9.43;6.83;;;;;;;8.65;82.64;96486.26;1839346;77;26400;-83
2020/12/24 02:21:36;;;;;;;11.48;7.08;;;;;;;8.67;82.56;96481.48;1828204;77;25931;-83
2020/12/24 02:24:03;;;;;;;9.75;7.25;;;;;;;8.66;82.46;96477.14;1830153;77;27488;-83
2020/12/24 02:26:31;;;;;;;8.25;6.22;;;;;;;8.65;82.44;96479.53;1855449;77;25739;-85
2020/12/24 02:28:59;;;;;;;7.60;6.25;;;;;;;8.65;82.43;96470.94;1837012;77;25724;-84
2020/12/24 02:31:26;;;;;;;10.23;7.12;;;;;;;8.67;82.42;96468.03;1856607;77;26445;-85
2020/12/24 02:33:53;;;;;;;8.25;5.92;;;;;;;8.70;82.44;96467.56;1832447;77;25860;-84
2020/12/24 02:36:21;;;;;;;7.60;5.92;;;;;;;8.71;82.39;96459.80;1857626;77;27610;-84
2020/12/24 02:38:48;;;;;;;8.38;5.97;;;;;;;8.77;82.42;96462.95;1856045;77;26507;-85
2020/12/24 02:41:15;;;;;;;6.90;5.75;;;;;;;8.79;82.37;96462.73;1833235;77;25424;-82
2020/12/24 02:43:47;;;;;;;7.05;5.53;;;;;;;8.84;82.34;96463.70;1826849;77;26480;-84
2020/12/24 02:46:13;;;;;;;9.25;5.85;;;;;;;8.88;82.35;96464.91;1856130;77;25754;-83
2020/12/24 02:48:40;;;;;;;7.62;5.53;;;;;;;8.91;82.29;96457.73;1824602;77;28497;-84
2020/12/24 02:51:08;;;;;;;7.17;5.22;;;;;;;8.97;82.27;96463.55;1847608;77;25712;-83
2020/12/24 02:53:36;;;;;;;9.38;6.10;;;;;;;9.00;82.21;96455.05;1856713;77;25753;-84
2020/12/24 02:56:04;;;;;;;7.03;5.47;;;;;;;9.03;82.15;96445.70;1829429;77;25913;-83
2020/12/24 02:58:32;;;;;;;11.85;5.42;;;;;;;9.05;82.09;96445.48;1823481;77;25728;-84
2020/12/24 03:01:00;;;;;;;6.37;4.92;;;;;;;9.08;82.07;96434.23;1848355;77;27551;-83
2020/12/24 03:03:27;;;;;;;7.87;5.22;;;;;;;9.11;82.02;96441.87;1833175;77;25766;-82
2020/12/24 03:05:55;;;;;;;8.60;5.20;;;;;;;9.14;81.96;96439.56;1835634;77;25683;-83
2020/12/24 03:08:22;;;;;;;6.20;4.15;;;;;;;9.15;81.89;96446.59;1826450;77;25771;-82
2020/12/24 03:10:50;;;;;;;6.05;4.25;;;;;;;9.16;81.85;96440.69;1839886;77;25895;-83
2020/12/24 03:13:17;;;;;;;5.62;4.33;;;;;;;9.16;81.80;96450.94;1842545;77;27481;-83
2020/12/24 03:15:45;;;;;;;6.17;4.30;;;;;;;9.17;81.79;96443.68;1832691;77;26182;-84
2020/12/24 03:18:12;;;;;;;5.70;4.37;;;;;;;9.20;81.77;96436.47;1824484;77;25987;-81
2020/12/24 03:20:39;;;;;;;4.67;4.03;;;;;;;9.22;81.74;96443.28;1843402;77;26339;-84
2020/12/24 03:23:07;;;;;;;5.45;3.95;;;;;;;9.27;81.75;96448.83;1840548;77;25750;-84
2020/12/24 03:25:34;;;;;;;5.80;4.03;;;;;;;9.38;81.78;96456.66;1855592;77;28540;-83
2020/12/24 03:28:01;;;;;;;4.60;3.55;;;;;;;9.45;81.67;96470.03;1841840;77;26175;-84
2020/12/24 03:30:29;;;;;;;5.33;3.50;;;;;;;9.50;81.56;96458.06;1830398;77;25811;-82
2020/12/24 03:32:56;;;;;;;4.37;3.58;;;;;;;9.54;81.47;96460.05;1838291;77;25669;-84
2020/12/24 03:35:24;;;;;;;5.80;3.95;;;;;;;9.57;81.39;96466.88;1852733;77;25856;-85
2020/12/24 03:37:51;;;;;;;7.17;4.58;;;;;;;9.57;81.29;96469.04;1836784;77;27474;-83
2020/12/24 03:40:18;;;;;;;7.55;4.90;;;;;;;9.60;81.25;96459.16;1822770;77;26375;-82
2020/12/24 03:42:46;;;;;;;5.30;4.40;;;;;;;9.63;81.16;96460.59;1834241;77;25925;-82
2020/12/24 03:45:13;;;;;;;4.97;4.20;;;;;;;9.62;81.09;96450.33;1851673;77;26480;-83
2020/12/24 03:47:41;;;;;;;7.37;3.92;;;;;;;9.54;80.99;96438.50;1824789;77;25763;-82
2020/12/24 03:50:08;;;;;;;4.62;4.10;;;;;;;9.66;80.95;96460.93;1833286;77;27473;-82
2020/12/24 03:52:35;;;;;;;6.05;4.35;;;;;;;9.68;80.86;96457.48;1830397;77;25707;-82
2020/12/24 03:55:03;;;;;;;6.87;4.00;;;;;;;9.70;80.76;96460.78;1844817;77;25766;-81
2020/12/24 03:57:30;;;;;;;4.85;4.12;;;;;;;9.70;80.66;96454.05;1845062;77;25730;-82
2020/12/24 03:59:57;;;;;;;5.80;5.15;;;;;;;9.72;80.53;96449.25;1835781;77;25777;-84
2020/12/24 04:02:25;;;;;;;7.85;4.53;;;;;;;9.73;80.37;96453.59;1854011;77;28434;-82
2020/12/24 04:04:52;;;;;;;9.10;6.20;;;;;;;9.73;80.31;96450.90;1838319;77;26277;-82
2020/12/24 04:07:20;;;;;;;9.43;6.25;;;;;;;9.74;80.14;96441.77;1851072;77;25711;-82
2020/12/24 04:09:47;;;;;;;7.55;5.10;;;;;;;9.73;80.04;96450.90;1856145;77;25801;-86
2020/12/24 04:12:15;;;;;;;10.53;7.22;;;;;;;9.75;80.06;96439.89;1830930;77;25678;-81
2020/12/24 04:14:42;;;;;;;6.28;4.90;;;;;;;9.74;79.84;96439.07;1835125;77;27767;-81
2020/12/24 04:17:09;;;;;;;7.92;5.65;;;;;;;9.75;79.71;96438.55;1856480;77;26195;-81
2020/12/24 04:19:37;;;;;;;13.95;9.25;;;;;;;9.75;79.51;96444.77;1856373;77;25844;-82
2020/12/24 04:22:04;;;;;;;9.20;6.87;;;;;;;9.74;79.30;96435.03;1855798;77;27198;-82
2020/12/24 04:24:31;;;;;;;7.70;6.00;;;;;;;9.74;79.21;96414.81;1856502;77;25721;-82
2020/12/24 04:26:58;;;;;;;8.60;6.47;;;;;;;9.72;79.14;96412.88;1839735;77;27531;-82
2020/12/24 04:29:26;;;;;;;7.10;5.70;;;;;;;9.72;78.90;96403.97;1856192;77;25809;-82
2020/12/24 04:31:53;;;;;;;6.53;5.05;;;;;;;9.71;78.88;96405.84;1856677;77;25705;-84
2020/12/24 04:34:20;;;;;;;6.28;4.95;;;;;;;9.68;78.82;96396.86;1842657;77;26395;-82
2020/12/24 04:36:50;;;;;;;6.67;5.05;;;;;;;9.67;78.75;96401.13;1832368;77;25305;-83
2020/12/24 04:39:19;;;;;;;6.92;5.17;;;;;;;9.64;78.57;96397.05;1834992;77;27548;-82
2020/12/24 04:41:47;;;;;;;7.45;5.40;;;;;;;9.63;78.53;96396.74;1821927;77;26436;-81
2020/12/24 04:44:15;;;;;;;10.53;6.40;;;;;;;9.63;78.45;96392.70;1824593;77;26430;-82
2020/12/24 04:46:44;;;;;;;7.40;6.12;;;;;;;9.63;78.36;96387.84;1850642;77;26294;-82
2020/12/24 04:49:11;;;;;;;9.95;6.83;;;;;;;9.62;78.37;96387.54;1852091;77;25709;-83
2020/12/24 04:51:38;;;;;;;9.43;6.58;;;;;;;9.62;78.31;96384.31;1844625;77;27489;-82
2020/12/24 04:54:08;;;;;;;9.73;6.62;;;;;;;9.62;78.21;96385.67;1822522;77;26388;-82
2020/12/24 04:56:36;;;;;;;8.53;6.72;;;;;;;9.63;78.13;96392.70;1846648;77;25714;-84
2020/12/24 04:59:03;;;;;;;9.28;7.47;;;;;;;9.62;78.05;96389.70;1838615;77;25728;-83
2020/12/24 05:01:30;;;;;;;6.85;5.70;;;;;;;9.57;77.96;96398.99;1844857;77;25719;-83
2020/12/24 05:03:58;;;;;;;8.88;6.95;;;;;;;9.53;78.05;96401.87;1835225;77;28459;-84
2020/12/24 05:06:25;;;;;;;8.83;7.00;;;;;;;9.54;78.04;96397.30;1847919;77;26266;-84
2020/12/24 05:08:55;;;;;;;6.53;5.80;;;;;;;9.53;78.01;96400.52;1838149;77;25289;-84
2020/12/24 05:11:31;;;;;;;7.72;6.17;;;;;;;9.47;77.96;96408.16;1830566;77;25866;-84
2020/12/24 05:14:20;;;;;;;8.40;5.50;;;;;;;9.45;77.96;96407.55;1823158;77;25304;-83
2020/12/24 05:17:01;;;;;;;8.28;6.22;;;;;;;9.39;77.98;96412.52;1829324;77;27559;-83
2020/12/24 05:19:47;;;;;;;8.58;6.62;;;;;;;9.36;77.96;96412.97;1848431;77;26116;-83
2020/12/24 05:22:21;;;;;;;10.03;7.70;;;;;;;9.32;78.01;96414.47;1824216;77;25920;-83
2020/12/24 05:24:50;;;;;;;9.13;6.47;;;;;;;9.30;78.09;96415.21;1833080;77;26803;-82
2020/12/24 05:27:21;;;;;;;7.70;6.00;;;;;;;9.25;78.11;96408.36;1836241;77;25727;-83
2020/12/24 05:29:51;;;;;;;10.50;7.00;;;;;;;9.25;78.17;96400.28;1854767;77;28624;-82
2020/12/24 05:32:29;;;;;;;10.25;7.35;;;;;;;9.23;78.19;96405.06;1854253;77;26256;-83
2020/12/24 05:35:12;;;;;;;8.08;6.20;;;;;;;9.25;78.24;96409.18;1833005;77;25759;-82
2020/12/24 05:37:41;;;;;;;10.08;7.12;;;;;;;9.23;78.02;96413.14;1844863;77;25741;-83
2020/12/24 05:40:26;;;;;;;9.55;7.47;;;;;;;9.16;77.89;96407.86;1823061;77;25684;-83
2020/12/24 05:43:02;;;;;;;9.45;7.65;;;;;;;9.02;77.82;96396.42;1823097;77;27439;-82
2020/12/24 05:45:33;;;;;;;9.30;7.05;;;;;;;8.97;77.94;96396.27;1822832;77;25695;-82
2020/12/24 05:48:11;;;;;;;9.00;7.05;;;;;;;8.90;77.99;96392.84;1823123;77;25861;-82
2020/12/24 05:50:41;;;;;;;15.55;10.08;;;;;;;8.88;78.05;96389.55;1829984;77;25808;-81
2020/12/24 05:53:16;;;;;;;15.45;10.32;;;;;;;8.84;78.11;96391.04;1838812;77;25966;-82
2020/12/24 05:55:44;;;;;;;9.90;7.62;;;;;;;8.82;78.16;96385.05;1853112;77;27479;-82
2020/12/24 05:58:12;;;;;;;14.45;8.60;;;;;;;8.79;78.12;96384.70;1839459;77;25748;-83
2020/12/24 06:00:41;;;;;;;11.43;8.45;;;;;;;8.77;78.19;96378.20;1822964;77;25670;-83
2020/12/24 06:03:18;;;;;;;12.50;8.53;;;;;;;8.77;78.17;96373.34;1844456;77;26437;-82
2020/12/24 06:06:04;;;;;;;14.30;9.20;;;;;;;8.72;78.18;96367.28;1856743;77;25812;-84
2020/12/24 06:08:35;;;;;;;12.53;9.23;;;;;;;8.72;78.20;96369.14;1856584;77;27564;-84
2020/12/24 06:11:10;;;;;;;13.83;9.40;;;;;;;8.68;78.20;96367.45;1843683;77;25738;-83
2020/12/24 06:13:44;;;;;;;14.43;9.38;;;;;;;8.61;78.24;96370.20;1823070;77;25735;-84
2020/12/24 06:16:15;;;;;;;15.05;9.50;;;;;;;8.56;78.30;96367.38;1823033;77;25788;-85
2020/12/24 06:18:45;;;;;;;15.28;11.28;;;;;;;8.53;78.37;96361.61;1846378;77;25788;-84
2020/12/24 06:21:16;;;;;;;16.52;10.78;;;;;;;8.50;78.39;96353.98;1837445;77;27350;-82
2020/12/24 06:23:52;;;;;;;12.55;8.05;;;;;;;8.46;78.41;96360.84;1831169;77;25793;-83
2020/12/24 06:26:27;;;;;;;14.43;10.28;;;;;;;8.44;78.46;96373.72;1823053;77;25804;-82
2020/12/24 06:29:00;;;;;;;18.92;10.58;;;;;;;8.44;78.59;96383.13;1822516;77;25756;-82
2020/12/24 06:31:29;;;;;;;16.20;10.95;;;;;;;8.50;78.64;96386.25;1836966;77;25768;-82
2020/12/24 06:33:57;;;;;;;16.32;10.45;;;;;;;8.56;78.60;96386.72;1830956;77;27552;-83
2020/12/24 06:36:37;;;;;;;13.78;8.70;;;;;;;8.61;78.53;96382.82;1812108;77;26088;-82
2020/12/24 06:39:05;;;;;;;11.73;8.60;;;;;;;8.60;78.40;96381.17;1830023;77;25754;-83
2020/12/24 06:41:39;;;;;;;13.50;10.05;;;;;;;8.48;78.24;96380.27;1841540;77;26303;-83
2020/12/24 06:44:08;;;;;;;17.42;11.22;;;;;;;8.32;78.18;96384.38;1826198;77;25727;-84
2020/12/24 06:46:58;;;;;;;15.45;10.82;;;;;;;8.30;78.23;96376.50;1822946;77;27493;-82
2020/12/24 06:49:32;;;;;;;16.70;10.50;;;;;;;8.23;78.18;96369.52;1832501;77;25773;-85
2020/12/24 06:52:00;;;;;;;18.67;11.55;;;;;;;8.18;78.15;96362.66;1855878;77;25729;-84
2020/12/24 06:54:29;;;;;;;16.77;10.78;;;;;;;8.15;78.21;96366.61;1833478;77;25778;-85
2020/12/24 06:57:23;;;;;;;17.25;11.35;;;;;;;8.13;78.17;96370.03;1823018;77;25715;-83
2020/12/24 07:00:12;;;;;;;21.33;12.10;;;;;;;8.07;78.04;96368.25;1845594;77;27475;-82
2020/12/24 07:02:39;;;;;;;13.50;10.32;;;;;;;8.00;78.06;96373.36;1839983;77;26205;-83
2020/12/24 07:05:06;;;;;;;16.17;9.93;;;;;;;7.90;78.20;96382.75;1822962;77;25740;-83
2020/12/24 07:07:44;;;;;;;15.98;10.18;;;;;;;7.87;78.31;96388.55;1834700;77;26453;-83
2020/12/24 07:10:49;;;;;;;13.50;9.78;;;;;;;7.89;78.56;96391.02;1831643;77;25929;-83
2020/12/24 07:13:43;;;;;;;12.95;9.28;;;;;;;7.93;78.64;96380.97;1843481;77;27495;-82
2020/12/24 07:16:13;;;;;;;15.05;9.68;;;;;;;7.91;78.33;96372.83;1856585;77;26419;-85
2020/12/24 07:18:41;;;;;;;16.37;10.90;;;;;;;7.84;78.12;96379.61;1835448;77;25697;-85
2020/12/24 07:21:11;;;;;;;15.65;12.00;;;;;;;7.78;78.11;96376.95;1856403;77;26481;-84
2020/12/24 07:23:41;;;;;;;19.30;13.75;;;;;;;7.77;78.21;96386.88;1852522;77;25863;-82
2020/12/24 07:26:11;;;;;;;16.95;11.90;;;;;;;7.79;78.39;96378.09;1849618;77;27589;-82
2020/12/24 07:28:40;;;;;;;17.40;12.10;;;;;;;7.84;78.60;96378.78;1822871;77;25687;-83
2020/12/24 07:31:10;;;;;;;18.10;11.83;;;;;;;7.91;78.82;96380.88;1823007;77;25738;-85
2020/12/24 07:33:46;;;;;;;21.07;13.38;;;;;;;7.98;78.95;96382.16;1842382;77;25772;-83
2020/12/24 07:36:13;;;;;;;15.15;10.70;;;;;;;8.08;79.09;96387.36;1851645;77;26406;-85
2020/12/24 07:38:41;;;;;;;14.40;10.80;;;;;;;8.15;79.12;96382.73;1854161;77;28495;-85
2020/12/24 07:41:16;;;;;;;16.00;11.35;;;;;;;8.21;79.11;96375.12;1853541;77;25791;-83
2020/12/24 07:43:43;;;;;;;19.23;11.73;;;;;;;8.30;79.10;96389.95;1840301;77;25874;-82
2020/12/24 07:46:11;;;;;;;21.57;13.20;;;;;;;8.36;79.08;96388.25;1851680;77;25686;-83
2020/12/24 07:48:39;;;;;;;17.77;11.90;;;;;;;8.40;78.99;96381.91;1856579;77;26496;-83
2020/12/24 07:51:10;;;;;;;13.98;9.73;;;;;;;8.45;79.01;96387.46;1852285;77;27476;-84
2020/12/24 07:53:37;;;;;;;12.50;9.20;;;;;;;8.48;78.97;96383.78;1822711;77;26554;-83
2020/12/24 07:56:08;;;;;;;15.72;9.90;;;;;;;8.56;79.03;96383.52;1846622;77;25803;-84
2020/12/24 07:58:37;;;;;;;19.77;12.78;;;;;;;8.63;78.98;96371.32;1844300;77;25838;-83
2020/12/24 08:01:06;;;;;;;15.10;12.18;;;;;;;8.61;78.83;96374.75;1846708;77;25915;-84
2020/12/24 08:03:33;;;;;;;17.10;11.45;;;;;;;8.55;78.78;96372.97;1822758;77;27477;-84
2020/12/24 08:06:06;;;;;;;23.98;16.02;;;;;;;8.59;78.92;96368.77;1822842;77;25791;-84
2020/12/24 08:08:35;;;;;;;20.85;14.53;;;;;;;8.62;78.94;96366.46;1823010;77;25722;-85
2020/12/24 08:11:08;;;;;;;47.83;21.68;;;;;;;8.65;78.97;96371.92;1822887;77;26748;-85
2020/12/24 08:13:36;;;;;;;112.88;38.42;;;;;;;8.69;79.02;96367.75;1825854;77;26355;-85
2020/12/24 08:16:05;;;;;;;57.78;27.13;;;;;;;8.75;79.07;96378.12;1835839;77;27475;-84
2020/12/24 08:18:41;;;;;;;43.20;24.92;;;;;;;8.75;79.06;96375.42;1822935;77;26123;-84
2020/12/24 08:21:28;;;;;;;43.17;25.27;;;;;;;8.71;79.09;96372.36;1822796;77;25799;-84
2020/12/24 08:24:01;;;;;;;32.28;21.10;;;;;;;8.71;79.14;96372.36;1822853;77;25736;-85
2020/12/24 08:26:28;;;;;;;;;;;;;;;8.69;79.24;96370.44;1825018;77;25792;-86
2020/12/24 08:29:05;;;;;;;22.67;16.93;;;;;;;8.69;79.32;96369.61;1822742;77;27613;-85
2020/12/24 08:31:39;;;;;;;30.92;21.55;;;;;;;8.66;79.41;96371.70;1845222;77;26264;-84
2020/12/24 08:34:09;;;;;;;36.00;20.65;;;;;;;8.68;79.43;96369.31;1841854;77;25782;-86
2020/12/24 08:36:46;;;;;;;32.93;20.68;;;;;;;8.67;79.34;96367.14;1822811;77;25742;-83
2020/12/24 08:39:18;;;;;;;32.78;22.98;;;;;;;8.63;79.41;96372.66;1825430;77;26169;-83
2020/12/24 08:41:55;;;;;;;36.77;24.20;;;;;;;8.63;79.61;96372.66;1822593;77;27482;-83
2020/12/24 08:44:25;;;;;;;35.10;22.98;;;;;;;8.63;79.62;96373.48;1820231;77;25798;-84
2020/12/24 08:47:09;;;;;;;32.28;22.58;;;;;;;8.63;79.62;96371.32;1822904;77;25778;-84
2020/12/24 08:49:45;;;;;;;43.15;27.37;;;;;;;8.63;79.67;96371.32;1822815;77;25727;-83
2020/12/24 08:52:21;;;;;;;36.70;23.98;;;;;;;8.66;79.74;96370.88;1822934;77;25664;-86
2020/12/24 08:55:02;;;;;;;40.73;25.12;;;;;;;8.70;79.83;96368.02;1839084;77;27539;-84
2020/12/24 08:57:31;;;;;;;33.48;21.40;;;;;;;8.66;79.78;96369.02;1838580;77;25731;-85
2020/12/24 09:00:03;;;;;;;56.50;34.20;;;;;;;8.65;79.93;96363.85;1850433;77;25709;-82
2020/12/24 09:02:34;;;;;;;44.10;29.27;;;;;;;8.66;79.97;96360.12;1843955;77;25732;-83
2020/12/24 09:05:05;;;;;;;54.03;30.40;;;;;;;8.66;79.97;96360.12;1840940;77;25737;-83
2020/12/24 09:07:35;;;;;;;47.75;30.40;;;;;;;8.60;79.99;96356.44;1847480;77;27521;-85
2020/12/24 09:10:07;;;;;;;47.58;29.18;;;;;;;8.62;80.08;96358.91;1850847;77;25666;-85
2020/12/24 09:12:38;;;;;;;79.10;42.45;;;;;;;8.62;80.07;96358.39;1848274;77;25810;-87
2020/12/24 09:15:12;;;;;;;120.60;53.25;;;;;;;8.63;80.15;96359.21;1852328;77;26777;-85
2020/12/24 09:17:53;;;;;;;115.90;51.53;;;;;;;8.55;80.17;96352.80;1842294;77;25888;-83
2020/12/24 09:20:33;;;;;;;92.97;41.68;;;;;;;8.58;80.37;96352.33;1853579;77;28370;-83
2020/12/24 09:23:10;;;;;;;72.62;38.83;;;;;;;8.59;80.38;96358.83;1850655;77;25770;-89
2020/12/24 09:25:45;;;;;;;76.87;45.15;;;;;;;8.51;80.40;96353.76;1847931;77;25849;-84
2020/12/24 09:28:25;;;;;;;64.03;40.67;;;;;;;8.50;80.55;96359.36;1856160;77;26439;-84
2020/12/24 09:30:58;;;;;;;72.78;39.23;;;;;;;8.52;80.65;96347.86;1853563;77;25791;-88
2020/12/24 09:33:26;;;;;;;65.90;33.20;;;;;;;8.55;80.66;96352.28;1849913;77;27693;-83
2020/12/24 09:35:54;;;;;;;71.00;36.90;;;;;;;8.57;80.66;96349.37;1844367;77;25995;-88
2020/12/24 09:38:22;;;;;;;54.55;29.82;;;;;;;8.61;80.76;96350.54;1844456;77;25813;-85
2020/12/24 09:40:49;;;;;;;54.27;29.02;;;;;;;8.66;80.75;96348.02;1856187;77;26252;-83
2020/12/24 09:43:17;;;;;;;52.67;27.73;;;;;;;8.71;80.73;96341.94;1846660;77;25803;-88
2020/12/24 09:45:45;;;;;;;44.53;25.12;;;;;;;8.72;80.69;96343.06;1855027;77;28659;-85
2020/12/24 09:48:12;;;;;;;34.60;21.50;;;;;;;8.68;80.66;96340.55;1841358;77;25808;-88
2020/12/24 09:50:40;;;;;;;36.42;20.92;;;;;;;8.70;80.74;96341.63;1849220;77;26019;-90
2020/12/24 09:53:08;;;;;;;37.90;21.37;;;;;;;8.70;80.78;96346.49;1844179;77;25723;-84
2020/12/24 09:55:35;;;;;;;33.70;20.20;;;;;;;8.68;80.78;96344.58;1853840;77;25802;-86
2020/12/24 09:58:02;;;;;;;39.65;21.75;;;;;;;8.71;80.87;96353.52;1849703;77;27478;-85
2020/12/24 10:00:30;;;;;;;35.88;20.25;;;;;;;8.77;80.93;96348.60;1824604;77;25698;-86
2020/12/24 10:02:57;;;;;;;29.25;18.77;;;;;;;8.62;80.57;96342.77;1844076;77;25835;-84
2020/12/24 10:05:25;;;;;;;59.18;28.47;;;;;;;8.53;80.77;96341.44;1825021;77;26436;-85
2020/12/24 10:07:52;;;;;;;53.60;28.27;;;;;;;8.58;80.99;96338.88;1823056;77;27145;-84
2020/12/24 10:10:19;;;;;;;38.63;21.05;;;;;;;8.64;81.05;96333.95;1823025;77;27554;-86
2020/12/24 10:12:47;;;;;;;35.28;19.40;;;;;;;8.70;81.05;96333.56;1838665;77;25697;-88
2020/12/24 10:15:14;;;;;;;27.17;16.25;;;;;;;8.75;81.03;96322.96;1830331;77;25692;-84
2020/12/24 10:17:42;;;;;;;26.42;17.30;;;;;;;8.81;81.03;96317.52;1826450;77;25772;-84
2020/12/24 10:20:09;;;;;;;30.60;18.57;;;;;;;8.85;81.05;96320.55;1842694;77;25723;-83
2020/12/24 10:22:36;;;;;;;35.58;19.48;;;;;;;8.88;81.07;96319.58;1822789;77;27587;-86
2020/12/24 10:25:04;;;;;;;32.03;19.65;;;;;;;8.92;81.05;96320.78;1822867;77;26073;-85
2020/12/24 10:27:32;;;;;;;37.15;19.60;;;;;;;8.96;80.95;96323.81;1822890;77;25862;-82
2020/12/24 10:29:59;;;;;;;39.03;21.62;;;;;;;8.97;80.89;96315.52;1822907;77;25766;-86
2020/12/24 10:32:26;;;;;;;67.25;29.12;;;;;;;9.00;80.88;96318.28;1845477;77;25737;-84
2020/12/24 10:34:54;;;;;;;92.02;35.50;;;;;;;9.02;80.82;96313.50;1855775;77;27505;-85
2020/12/24 10:37:21;;;;;;;87.42;33.00;;;;;;;9.02;80.75;96312.16;1846380;77;25734;-87
2020/12/24 10:39:49;;;;;;;74.00;33.25;;;;;;;9.03;80.73;96311.94;1836919;77;25692;-83
2020/12/24 10:42:16;;;;;;;76.57;36.70;;;;;;;9.02;80.57;96312.98;1843414;77;26487;-86
2020/12/24 10:44:44;;;;;;;64.97;36.33;;;;;;;9.01;80.52;96315.38;1850741;77;25332;-84
2020/12/24 10:47:11;;;;;;;42.98;26.77;;;;;;;9.02;80.56;96310.29;1848537;77;28447;-84
2020/12/24 10:49:41;;;;;;;36.83;23.55;;;;;;;9.05;80.60;96311.71;1852290;77;26199;-88
2020/12/24 10:52:14;;;;;;;33.60;23.40;;;;;;;9.01;80.59;96302.44;1826342;77;25762;-83
2020/12/24 10:54:41;;;;;;;35.10;23.20;;;;;;;9.01;80.67;96300.56;1835279;77;25729;-86
2020/12/24 10:57:08;;;;;;;31.07;20.85;;;;;;;8.96;80.64;96299.07;1840904;77;26426;-83
2020/12/24 10:59:35;;;;;;;31.75;20.30;;;;;;;8.90;80.66;96295.14;1856315;77;27531;-83
2020/12/24 11:02:03;;;;;;;28.10;20.12;;;;;;;8.89;80.74;96295.66;1852458;77;25727;-88
2020/12/24 11:04:31;;;;;;;34.95;21.33;;;;;;;8.88;80.82;96289.98;1838567;77;25735;-85
2020/12/24 11:06:58;;;;;;;33.20;21.55;;;;;;;8.90;80.81;96292.45;1822945;77;25784;-85
2020/12/24 11:09:25;;;;;;;46.13;24.82;;;;;;;8.91;80.81;96290.06;1823016;77;26242;-85
2020/12/24 11:11:53;;;;;;;37.10;22.77;;;;;;;8.92;80.74;96287.66;1822884;77;27554;-84
2020/12/24 11:14:20;;;;;;;61.95;30.95;;;;;;;8.86;80.63;96279.96;1822813;77;25652;-84
2020/12/24 11:16:48;;;;;;;68.12;32.03;;;;;;;8.87;80.71;96282.13;1840172;77;25837;-86
2020/12/24 11:19:15;;;;;;;100.35;39.88;;;;;;;8.89;80.73;96275.48;1828985;77;26632;-84
2020/12/24 11:21:42;;;;;;;97.00;40.25;;;;;;;8.90;80.79;96274.95;1822912;77;25828;-86
2020/12/24 11:24:10;;;;;;;82.75;35.40;;;;;;;8.91;80.81;96272.04;1846471;77;28432;-85
2020/12/24 11:26:38;;;;;;;70.90;32.88;;;;;;;8.89;80.70;96270.09;1822708;77;25762;-86
2020/12/24 11:29:08;;;;;;;73.47;32.88;;;;;;;8.87;80.74;96261.42;1822895;77;25738;-84
2020/12/24 11:31:38;;;;;;;59.55;30.00;;;;;;;8.89;80.86;96262.02;1851325;77;26397;-85
2020/12/24 11:34:07;;;;;;;66.87;32.78;;;;;;;8.90;80.80;96253.42;1831312;77;25828;-85
2020/12/24 11:36:35;;;;;;;48.83;24.70;;;;;;;8.83;80.72;96248.12;1822866;77;28364;-86
2020/12/24 11:39:06;;;;;;;31.48;17.15;;;;;;;8.80;80.74;96241.05;1823051;77;25763;-85
2020/12/24 11:41:34;;;;;;;21.33;13.05;;;;;;;8.80;80.81;96240.53;1822763;77;26460;-84
2020/12/24 11:44:02;;;;;;;27.42;16.50;;;;;;;8.78;80.87;96235.89;1846385;77;26391;-86
2020/12/24 11:46:29;;;;;;;21.77;13.45;;;;;;;8.78;80.86;96234.55;1823069;77;25672;-87